sensor_id;sensor_type;location;lat;lon;timestamp;pressure;altitude;pressure_sealevel;temperature;humidity
43430;BME280;29028;43.234;27.896;2022-07-04T04:01:29;100235.94;;;22.62;55.86
43430;BME280;29028;43.234;27.896;2022-07-04T04:02:09;100246.94;;;22.67;56.01
43430;BME280;29028;43.234;27.896;2022-07-04T04:02:30;100241.16;;;22.64;55.98
43430;BME280;29028;43.234;27.896;2022-07-04T04:02:51;100248.59;;;22.68;56.44
43430;BME280;29028;43.234;27.896;2022-07-04T04:03:12;100242.06;;;22.74;56.38
43430;BME280;29028;43.234;27.896;2022-07-04T04:03:48;100245.88;;;22.78;56.15
43430;BME280;29028;43.234;27.896;2022-07-04T04:04:27;100247.81;;;22.73;56.61
43430;BME280;29028;43.234;27.896;2022-07-04T04:05:07;100246.97;;;22.72;56.80
43430;BME280;29028;43.234;27.896;2022-07-04T04:05:46;100247.19;;;22.61;56.61
43430;BME280;29028;43.234;27.896;2022-07-04T04:06:07;100250.88;;;22.40;55.93
43430;BME280;29028;43.234;27.896;2022-07-04T04:06:29;100242.47;;;22.15;55.78
43430;BME280;29028;43.234;27.896;2022-07-04T04:06:50;100252.59;;;22.09;55.93
43430;BME280;29028;43.234;27.896;2022-07-04T04:07:11;100248.69;;;22.00;55.36
43430;BME280;29028;43.234;27.896;2022-07-04T04:07:32;100237.28;;;21.82;56.08
43430;BME280;29028;43.234;27.896;2022-07-04T04:07:55;100238.06;;;21.77;57.03
43430;BME280;29028;43.234;27.896;2022-07-04T04:08:16;100240.13;;;21.65;58.91
43430;BME280;29028;43.234;27.896;2022-07-04T04:08:37;100236.19;;;21.56;59.65
43430;BME280;29028;43.234;27.896;2022-07-04T04:08:59;100236.66;;;21.48;59.09
43430;BME280;29028;43.234;27.896;2022-07-04T04:09:20;100236.41;;;21.50;59.24
43430;BME280;29028;43.234;27.896;2022-07-04T04:09:41;100240.50;;;21.47;59.01
43430;BME280;29028;43.234;27.896;2022-07-04T04:10:02;100239.72;;;21.52;58.40
43430;BME280;29028;43.234;27.896;2022-07-04T04:10:24;100230.19;;;21.59;58.15
43430;BME280;29028;43.234;27.896;2022-07-04T04:10:46;100241.94;;;21.55;57.23
43430;BME280;29028;43.234;27.896;2022-07-04T04:11:07;100234.72;;;21.44;56.76
43430;BME280;29028;43.234;27.896;2022-07-04T04:11:28;100237.81;;;21.26;57.63
43430;BME280;29028;43.234;27.896;2022-07-04T04:11:48;100242.16;;;21.22;57.71
43430;BME280;29028;43.234;27.896;2022-07-04T04:12:10;100243.19;;;21.16;57.74
43430;BME280;29028;43.234;27.896;2022-07-04T04:12:31;100241.06;;;21.23;57.60
43430;BME280;29028;43.234;27.896;2022-07-04T04:12:52;100235.84;;;21.21;58.03
43430;BME280;29028;43.234;27.896;2022-07-04T04:13:13;100249.09;;;21.29;58.22
43430;BME280;29028;43.234;27.896;2022-07-04T04:13:34;100244.56;;;21.45;57.81
43430;BME280;29028;43.234;27.896;2022-07-04T04:13:56;100241.63;;;21.51;58.20
43430;BME280;29028;43.234;27.896;2022-07-04T04:14:17;100240.25;;;21.49;57.96
43430;BME280;29028;43.234;27.896;2022-07-04T04:14:38;100235.25;;;21.41;57.88
43430;BME280;29028;43.234;27.896;2022-07-04T04:14:59;100245.41;;;21.45;58.46
43430;BME280;29028;43.234;27.896;2022-07-04T04:15:20;100238.22;;;21.39;59.16
43430;BME280;29028;43.234;27.896;2022-07-04T04:15:42;100242.38;;;21.42;59.27
43430;BME280;29028;43.234;27.896;2022-07-04T04:16:03;100248.47;;;21.49;59.11
43430;BME280;29028;43.234;27.896;2022-07-04T04:16:24;100248.56;;;21.59;59.05
43430;BME280;29028;43.234;27.896;2022-07-04T04:16:47;100244.06;;;21.74;58.89
43430;BME280;29028;43.234;27.896;2022-07-04T04:17:08;100240.88;;;21.82;58.48
43430;BME280;29028;43.234;27.896;2022-07-04T04:17:29;100252.47;;;21.94;58.21
43430;BME280;29028;43.234;27.896;2022-07-04T04:17:50;100251.28;;;22.17;58.28
43430;BME280;29028;43.234;27.896;2022-07-04T04:18:11;100244.22;;;22.31;57.90
43430;BME280;29028;43.234;27.896;2022-07-04T04:18:33;100245.41;;;22.40;57.33
43430;BME280;29028;43.234;27.896;2022-07-04T04:18:53;100241.03;;;22.44;57.25
43430;BME280;29028;43.234;27.896;2022-07-04T04:19:14;100247.66;;;22.48;56.98
43430;BME280;29028;43.234;27.896;2022-07-04T04:19:35;100243.56;;;22.50;56.63
43430;BME280;29028;43.234;27.896;2022-07-04T04:19:57;100246.03;;;22.52;56.85
43430;BME280;29028;43.234;27.896;2022-07-04T04:20:18;100246.88;;;22.57;56.68
43430;BME280;29028;43.234;27.896;2022-07-04T04:20:39;100251.31;;;22.58;56.52
43430;BME280;29028;43.234;27.896;2022-07-04T04:21:00;100246.91;;;22.62;56.83
43430;BME280;29028;43.234;27.896;2022-07-04T04:21:21;100241.16;;;22.64;56.73
43430;BME280;29028;43.234;27.896;2022-07-04T04:21:43;100247.19;;;22.61;56.51
43430;BME280;29028;43.234;27.896;2022-07-04T04:22:04;100245.31;;;22.71;56.62
43430;BME280;29028;43.234;27.896;2022-07-04T04:22:27;100243.72;;;22.80;56.58
43430;BME280;29028;43.234;27.896;2022-07-04T04:22:48;100247.03;;;22.87;56.42
43430;BME280;29028;43.234;27.896;2022-07-04T04:23:11;100234.03;;;22.68;55.40
43430;BME280;29028;43.234;27.896;2022-07-04T04:23:32;100246.41;;;22.70;55.74
43430;BME280;29028;43.234;27.896;2022-07-04T04:23:53;100239.81;;;22.71;55.59
43430;BME280;29028;43.234;27.896;2022-07-04T04:24:14;100237.41;;;22.85;55.94
43430;BME280;29028;43.234;27.896;2022-07-04T04:24:36;100235.78;;;22.89;55.86
43430;BME280;29028;43.234;27.896;2022-07-04T04:24:57;100242.69;;;22.96;55.95
43430;BME280;29028;43.234;27.896;2022-07-04T04:25:18;100249.00;;;22.97;55.64
43430;BME280;29028;43.234;27.896;2022-07-04T04:25:39;100243.81;;;23.05;55.29
43430;BME280;29028;43.234;27.896;2022-07-04T04:26:00;100241.09;;;23.15;55.63
43430;BME280;29028;43.234;27.896;2022-07-04T04:26:21;100241.41;;;23.19;55.77
43430;BME280;29028;43.234;27.896;2022-07-04T04:26:42;100247.50;;;23.26;55.71
43430;BME280;29028;43.234;27.896;2022-07-04T04:27:03;100248.31;;;23.36;55.87
43430;BME280;29028;43.234;27.896;2022-07-04T04:27:25;100239.84;;;23.48;56.38
43430;BME280;29028;43.234;27.896;2022-07-04T04:27:46;100237.63;;;23.45;56.23
43430;BME280;29028;43.234;27.896;2022-07-04T04:28:07;100237.63;;;23.45;56.65
43430;BME280;29028;43.234;27.896;2022-07-04T04:28:28;100235.72;;;23.45;56.51
43430;BME280;29028;43.234;27.896;2022-07-04T04:28:49;100234.06;;;23.39;56.42
43430;BME280;29028;43.234;27.896;2022-07-04T04:29:11;100244.75;;;23.46;56.29
43430;BME280;29028;43.234;27.896;2022-07-04T04:29:32;100237.09;;;23.48;56.23
43430;BME280;29028;43.234;27.896;2022-07-04T04:29:52;100241.50;;;23.59;56.02
43430;BME280;29028;43.234;27.896;2022-07-04T04:30:13;100238.75;;;23.64;56.18
43430;BME280;29028;43.234;27.896;2022-07-04T04:30:35;100232.41;;;23.48;56.55
43430;BME280;29028;43.234;27.896;2022-07-04T04:30:56;100234.31;;;23.53;56.86
43430;BME280;29028;43.234;27.896;2022-07-04T04:31:17;100234.03;;;23.49;56.93
43430;BME280;29028;43.234;27.896;2022-07-04T04:31:38;100241.75;;;23.52;56.87
43430;BME280;29028;43.234;27.896;2022-07-04T04:32:02;100236.00;;;23.59;56.42
43430;BME280;29028;43.234;27.896;2022-07-04T04:32:23;100239.53;;;23.44;56.59
43430;BME280;29028;43.234;27.896;2022-07-04T04:32:43;100241.47;;;23.44;56.76
43430;BME280;29028;43.234;27.896;2022-07-04T04:33:05;100243.66;;;23.47;56.79
43430;BME280;29028;43.234;27.896;2022-07-04T04:33:27;100239.53;;;23.49;56.67
43430;BME280;29028;43.234;27.896;2022-07-04T04:33:48;100239.53;;;23.49;56.95
43430;BME280;29028;43.234;27.896;2022-07-04T04:34:08;100234.63;;;23.56;57.19
43430;BME280;29028;43.234;27.896;2022-07-04T04:34:29;100236.78;;;23.44;57.60
43430;BME280;29028;43.234;27.896;2022-07-04T04:34:51;100235.16;;;23.48;57.63
43430;BME280;29028;43.234;27.896;2022-07-04T04:35:12;100242.28;;;23.49;57.67
43430;BME280;29028;43.234;27.896;2022-07-04T04:35:33;100247.00;;;23.59;57.79
43430;BME280;29028;43.234;27.896;2022-07-04T04:35:54;100240.38;;;23.55;57.90
43430;BME280;29028;43.234;27.896;2022-07-04T04:36:15;100235.41;;;23.52;57.96
43430;BME280;29028;43.234;27.896;2022-07-04T04:36:36;100242.88;;;23.51;57.77
43430;BME280;29028;43.234;27.896;2022-07-04T04:36:57;100239.25;;;23.41;57.05
43430;BME280;29028;43.234;27.896;2022-07-04T04:37:18;100235.13;;;23.38;56.99
43430;BME280;29028;43.234;27.896;2022-07-04T04:37:39;100239.53;;;23.34;57.58
43430;BME280;29028;43.234;27.896;2022-07-04T04:38:01;100238.16;;;23.42;57.73
43430;BME280;29028;43.234;27.896;2022-07-04T04:38:22;100241.47;;;23.39;57.83
43430;BME280;29028;43.234;27.896;2022-07-04T04:38:43;100238.16;;;23.47;57.60
43430;BME280;29028;43.234;27.896;2022-07-04T04:39:04;100235.16;;;23.63;57.35
43430;BME280;29028;43.234;27.896;2022-07-04T04:39:25;100236.00;;;23.69;57.30
43430;BME280;29028;43.234;27.896;2022-07-04T04:39:47;100243.97;;;23.75;57.46
43430;BME280;29028;43.234;27.896;2022-07-04T04:40:09;100236.88;;;23.94;57.03
43430;BME280;29028;43.234;27.896;2022-07-04T04:40:30;100241.28;;;23.95;56.86
43430;BME280;29028;43.234;27.896;2022-07-04T04:40:51;100232.75;;;23.92;57.30
43430;BME280;29028;43.234;27.896;2022-07-04T04:41:12;100235.75;;;24.00;57.46
43430;BME280;29028;43.234;27.896;2022-07-04T04:41:34;100232.44;;;24.03;57.55
43430;BME280;29028;43.234;27.896;2022-07-04T04:41:55;100231.06;;;24.06;57.63
43430;BME280;29028;43.234;27.896;2022-07-04T04:42:16;100239.59;;;24.14;57.88
43430;BME280;29028;43.234;27.896;2022-07-04T04:42:36;100236.84;;;24.19;57.56
43430;BME280;29028;43.234;27.896;2022-07-04T04:42:58;100237.34;;;24.26;57.44
43430;BME280;29028;43.234;27.896;2022-07-04T04:43:20;100237.34;;;24.31;57.17
43430;BME280;29028;43.234;27.896;2022-07-04T04:43:41;100233.22;;;24.34;57.31
43430;BME280;29028;43.234;27.896;2022-07-04T04:44:02;100242.31;;;24.34;57.29
43430;BME280;29028;43.234;27.896;2022-07-04T04:44:25;100234.34;;;24.28;57.06
43430;BME280;29028;43.234;27.896;2022-07-04T04:44:46;100235.47;;;24.07;57.74
43430;BME280;29028;43.234;27.896;2022-07-04T04:45:08;100230.53;;;23.94;58.27
43430;BME280;29028;43.234;27.896;2022-07-04T04:45:29;100229.69;;;23.98;58.49
43430;BME280;29028;43.234;27.896;2022-07-04T04:45:51;100234.38;;;24.03;57.75
43430;BME280;29028;43.234;27.896;2022-07-04T04:46:12;100230.53;;;23.99;57.73
43430;BME280;29028;43.234;27.896;2022-07-04T04:46:33;100222.81;;;23.91;58.23
43430;BME280;29028;43.234;27.896;2022-07-04T04:46:54;100236.88;;;23.94;58.74
43430;BME280;29028;43.234;27.896;2022-07-04T04:47:17;100233.28;;;23.89;60.09
43430;BME280;29028;43.234;27.896;2022-07-04T04:47:38;100238.75;;;23.84;60.43
43430;BME280;29028;43.234;27.896;2022-07-04T04:47:59;100239.03;;;23.67;60.71
43430;BME280;29028;43.234;27.896;2022-07-04T04:48:20;100224.19;;;23.68;60.90
43430;BME280;29028;43.234;27.896;2022-07-04T04:48:42;100234.63;;;23.61;60.59
43430;BME280;29028;43.234;27.896;2022-07-04T04:49:03;100229.41;;;23.70;60.55
43430;BME280;29028;43.234;27.896;2022-07-04T04:49:23;100234.66;;;23.91;59.48
43430;BME280;29028;43.234;27.896;2022-07-04T04:49:46;100228.88;;;24.03;58.50
43430;BME280;29028;43.234;27.896;2022-07-04T04:50:08;100226.41;;;24.06;58.60
43430;BME280;29028;43.234;27.896;2022-07-04T04:50:32;100226.94;;;24.13;58.90
43430;BME280;29028;43.234;27.896;2022-07-04T04:50:52;100230.53;;;24.19;58.93
43430;BME280;29028;43.234;27.896;2022-07-04T04:51:14;100231.84;;;24.26;59.25
43430;BME280;29028;43.234;27.896;2022-07-04T04:51:35;100236.03;;;24.24;59.19
43430;BME280;29028;43.234;27.896;2022-07-04T04:51:56;100235.16;;;24.38;59.16
43430;BME280;29028;43.234;27.896;2022-07-04T04:52:17;100237.59;;;24.45;57.86
43430;BME280;29028;43.234;27.896;2022-07-04T04:52:39;100237.91;;;24.43;58.85
43430;BME280;29028;43.234;27.896;2022-07-04T04:53:01;100229.34;;;24.45;57.87
43430;BME280;29028;43.234;27.896;2022-07-04T04:53:22;100241.78;;;24.32;57.91
43430;BME280;29028;43.234;27.896;2022-07-04T04:53:45;100231.56;;;24.38;57.91
43430;BME280;29028;43.234;27.896;2022-07-04T04:54:08;100230.72;;;24.42;58.60
43430;BME280;29028;43.234;27.896;2022-07-04T04:54:29;100236.78;;;24.44;57.94
43430;BME280;29028;43.234;27.896;2022-07-04T04:54:50;100233.19;;;24.49;58.07
43430;BME280;29028;43.234;27.896;2022-07-04T04:55:11;100227.44;;;24.40;58.26
43430;BME280;29028;43.234;27.896;2022-07-04T04:55:32;100232.94;;;24.45;58.10
43430;BME280;29028;43.234;27.896;2022-07-04T04:55:53;100225.78;;;24.49;57.85
43430;BME280;29028;43.234;27.896;2022-07-04T04:56:14;100229.09;;;24.26;58.17
43430;BME280;29028;43.234;27.896;2022-07-04T04:56:36;100238.47;;;24.15;58.87
43430;BME280;29028;43.234;27.896;2022-07-04T04:56:57;100236.84;;;24.19;58.99
43430;BME280;29028;43.234;27.896;2022-07-04T04:57:18;100237.66;;;24.25;59.31
43430;BME280;29028;43.234;27.896;2022-07-04T04:57:39;100239.03;;;24.27;59.31
43430;BME280;29028;43.234;27.896;2022-07-04T04:58:00;100238.72;;;24.34;58.71
43430;BME280;29028;43.234;27.896;2022-07-04T04:58:22;100236.81;;;24.29;58.54
43430;BME280;29028;43.234;27.896;2022-07-04T04:58:44;100233.28;;;24.09;59.18
43430;BME280;29028;43.234;27.896;2022-07-04T04:59:04;100239.59;;;24.09;59.65
43430;BME280;29028;43.234;27.896;2022-07-04T04:59:26;100232.44;;;24.08;59.52
43430;BME280;29028;43.234;27.896;2022-07-04T04:59:46;100235.19;;;24.23;60.00
43430;BME280;29028;43.234;27.896;2022-07-04T05:00:09;100240.41;;;24.30;59.15
43430;BME280;29028;43.234;27.896;2022-07-04T05:00:31;100231.59;;;24.33;58.92
43430;BME280;29028;43.234;27.896;2022-07-04T05:00:52;100233.00;;;24.05;60.11
43430;BME280;29028;43.234;27.896;2022-07-04T05:01:13;100238.53;;;24.05;60.90
43430;BME280;29028;43.234;27.896;2022-07-04T05:01:34;100229.97;;;24.07;60.74
43430;BME280;29028;43.234;27.896;2022-07-04T05:01:56;100236.03;;;24.09;61.64
43430;BME280;29028;43.234;27.896;2022-07-04T05:02:18;100235.75;;;24.05;61.53
43430;BME280;29028;43.234;27.896;2022-07-04T05:02:39;100226.66;;;24.15;61.28
43430;BME280;29028;43.234;27.896;2022-07-04T05:03:00;100234.34;;;24.28;60.23
43430;BME280;29028;43.234;27.896;2022-07-04T05:03:21;100236.81;;;24.34;59.72
43430;BME280;29028;43.234;27.896;2022-07-04T05:03:43;100233.81;;;24.26;60.21
43430;BME280;29028;43.234;27.896;2022-07-04T05:04:04;100233.81;;;24.11;60.62
43430;BME280;29028;43.234;27.896;2022-07-04T05:04:25;100229.16;;;23.91;61.49
43430;BME280;29028;43.234;27.896;2022-07-04T05:04:46;100237.94;;;23.83;61.71
43430;BME280;29028;43.234;27.896;2022-07-04T05:05:08;100234.88;;;23.80;62.75
43430;BME280;29028;43.234;27.896;2022-07-04T05:05:29;100237.97;;;23.88;63.04
43430;BME280;29028;43.234;27.896;2022-07-04T05:05:50;100238.25;;;23.92;62.70
43430;BME280;29028;43.234;27.896;2022-07-04T05:06:12;100242.63;;;23.93;62.57
43430;BME280;29028;43.234;27.896;2022-07-04T05:06:34;100240.16;;;24.01;62.54
43430;BME280;29028;43.234;27.896;2022-07-04T05:06:55;100235.50;;;23.97;62.09
43430;BME280;29028;43.234;27.896;2022-07-04T05:07:16;100242.06;;;24.16;61.06
43430;BME280;29028;43.234;27.896;2022-07-04T05:07:37;100246.72;;;24.30;60.75
43430;BME280;29028;43.234;27.896;2022-07-04T05:07:59;100247.56;;;24.31;60.45
43430;BME280;29028;43.234;27.896;2022-07-04T05:08:20;100237.66;;;24.35;60.09
43430;BME280;29028;43.234;27.896;2022-07-04T05:08:41;100251.38;;;24.45;59.44
43430;BME280;29028;43.234;27.896;2022-07-04T05:09:03;100246.13;;;24.58;58.78
43430;BME280;29028;43.234;27.896;2022-07-04T05:09:24;100243.94;;;24.60;58.89
43430;BME280;29028;43.234;27.896;2022-07-04T05:09:44;100252.75;;;24.62;58.77
43430;BME280;29028;43.234;27.896;2022-07-04T05:10:08;100248.09;;;24.58;59.79
43430;BME280;29028;43.234;27.896;2022-07-04T05:10:29;100255.78;;;24.61;59.85
43430;BME280;29028;43.234;27.896;2022-07-04T05:10:50;100252.72;;;24.67;58.84
43430;BME280;29028;43.234;27.896;2022-07-04T05:11:11;100255.19;;;24.74;58.33
43430;BME280;29028;43.234;27.896;2022-07-04T05:11:33;100251.59;;;24.73;59.18
43430;BME280;29028;43.234;27.896;2022-07-04T05:11:54;100250.22;;;24.76;59.04
43430;BME280;29028;43.234;27.896;2022-07-04T05:12:15;100254.09;;;24.75;58.72
43430;BME280;29028;43.234;27.896;2022-07-04T05:12:37;100245.00;;;24.69;58.42
43430;BME280;29028;43.234;27.896;2022-07-04T05:12:59;100254.88;;;24.80;58.39
43430;BME280;29028;43.234;27.896;2022-07-04T05:13:20;100252.69;;;24.77;58.94
43430;BME280;29028;43.234;27.896;2022-07-04T05:13:41;100248.56;;;24.75;58.81
43430;BME280;29028;43.234;27.896;2022-07-04T05:14:02;100249.97;;;24.67;58.99
43430;BME280;29028;43.234;27.896;2022-07-04T05:14:24;100247.75;;;24.74;58.97
43430;BME280;29028;43.234;27.896;2022-07-04T05:14:44;100256.31;;;24.73;58.73
43430;BME280;29028;43.234;27.896;2022-07-04T05:15:06;100252.22;;;24.60;58.78
43430;BME280;29028;43.234;27.896;2022-07-04T05:15:27;100252.75;;;24.62;58.81
43430;BME280;29028;43.234;27.896;2022-07-04T05:15:49;100247.50;;;24.61;59.64
43430;BME280;29028;43.234;27.896;2022-07-04T05:16:13;100254.97;;;24.60;59.41
43430;BME280;29028;43.234;27.896;2022-07-04T05:16:33;100251.63;;;24.58;59.42
43430;BME280;29028;43.234;27.896;2022-07-04T05:16:54;100255.47;;;24.67;57.76
43430;BME280;29028;43.234;27.896;2022-07-04T05:17:18;100238.97;;;24.67;57.39
43430;BME280;29028;43.234;27.896;2022-07-04T05:17:39;100253.25;;;24.74;58.68
43430;BME280;29028;43.234;27.896;2022-07-04T05:18:00;100238.97;;;24.67;59.06
43430;BME280;29028;43.234;27.896;2022-07-04T05:18:20;100246.63;;;24.75;58.76
43430;BME280;29028;43.234;27.896;2022-07-04T05:18:43;100250.78;;;24.73;58.38
43430;BME280;29028;43.234;27.896;2022-07-04T05:19:03;100248.31;;;24.71;58.72
43430;BME280;29028;43.234;27.896;2022-07-04T05:19:24;100253.59;;;24.58;58.95
43430;BME280;29028;43.234;27.896;2022-07-04T05:19:45;100252.47;;;24.54;59.13
43430;BME280;29028;43.234;27.896;2022-07-04T05:20:08;100252.47;;;24.59;59.30
43430;BME280;29028;43.234;27.896;2022-07-04T05:20:29;100250.81;;;24.63;59.25
43430;BME280;29028;43.234;27.896;2022-07-04T05:20:50;100242.25;;;24.64;58.74
43430;BME280;29028;43.234;27.896;2022-07-04T05:21:11;100256.00;;;24.69;58.40
43430;BME280;29028;43.234;27.896;2022-07-04T05:21:32;100248.56;;;24.75;58.14
43430;BME280;29028;43.234;27.896;2022-07-04T05:21:54;100251.09;;;24.61;58.57
43430;BME280;29028;43.234;27.896;2022-07-04T05:22:15;100243.09;;;24.45;58.77
43430;BME280;29028;43.234;27.896;2022-07-04T05:22:36;100241.78;;;24.27;58.96
43430;BME280;29028;43.234;27.896;2022-07-04T05:22:57;100246.72;;;24.35;60.03
43430;BME280;29028;43.234;27.896;2022-07-04T05:23:19;100254.72;;;24.32;60.90
43430;BME280;29028;43.234;27.896;2022-07-04T05:23:39;100256.06;;;24.39;61.07
43430;BME280;29028;43.234;27.896;2022-07-04T05:24:00;100256.59;;;24.46;61.16
43430;BME280;29028;43.234;27.896;2022-07-04T05:24:21;100248.06;;;24.53;61.05
43430;BME280;29028;43.234;27.896;2022-07-04T05:24:43;100255.47;;;24.67;60.05
43430;BME280;29028;43.234;27.896;2022-07-04T05:25:05;100250.50;;;24.69;59.37
43430;BME280;29028;43.234;27.896;2022-07-04T05:25:26;100258.47;;;24.76;59.85
43430;BME280;29028;43.234;27.896;2022-07-04T05:25:47;100248.84;;;24.73;59.59
43430;BME280;29028;43.234;27.896;2022-07-04T05:26:09;100254.06;;;24.80;59.11
43430;BME280;29028;43.234;27.896;2022-07-04T05:26:30;100254.94;;;24.70;58.50
43430;BME280;29028;43.234;27.896;2022-07-04T05:26:51;100260.13;;;24.77;58.27
43430;BME280;29028;43.234;27.896;2022-07-04T05:27:12;100254.09;;;24.55;58.83
43430;BME280;29028;43.234;27.896;2022-07-04T05:27:34;100257.44;;;24.47;59.61
43430;BME280;29028;43.234;27.896;2022-07-04T05:27:55;100252.53;;;24.14;59.92
43430;BME280;29028;43.234;27.896;2022-07-04T05:28:16;100245.91;;;24.30;60.12
43430;BME280;29028;43.234;27.896;2022-07-04T05:28:37;100257.72;;;24.45;59.73
43430;BME280;29028;43.234;27.896;2022-07-04T05:28:59;100255.47;;;24.57;58.88
43430;BME280;29028;43.234;27.896;2022-07-04T05:29:19;100255.75;;;24.66;58.56
43430;BME280;29028;43.234;27.896;2022-07-04T05:29:40;100246.44;;;24.62;58.61
43430;BME280;29028;43.234;27.896;2022-07-04T05:30:01;100254.97;;;24.45;59.50
43430;BME280;29028;43.234;27.896;2022-07-04T05:30:24;100249.44;;;24.45;60.03
43430;BME280;29028;43.234;27.896;2022-07-04T05:30:45;100255.22;;;24.49;60.45
43430;BME280;29028;43.234;27.896;2022-07-04T05:31:05;100253.59;;;24.58;60.89
43430;BME280;29028;43.234;27.896;2022-07-04T05:31:26;100254.13;;;24.50;59.96
43430;BME280;29028;43.234;27.896;2022-07-04T05:31:48;100250.25;;;24.66;59.67
43430;BME280;29028;43.234;27.896;2022-07-04T05:32:09;100257.41;;;24.67;59.63
43430;BME280;29028;43.234;27.896;2022-07-04T05:32:31;100249.97;;;24.52;59.56
43430;BME280;29028;43.234;27.896;2022-07-04T05:32:52;100248.34;;;24.51;59.79
43430;BME280;29028;43.234;27.896;2022-07-04T05:33:14;100263.50;;;24.59;60.47
43430;BME280;29028;43.234;27.896;2022-07-04T05:33:35;100246.69;;;24.55;59.88
43430;BME280;29028;43.234;27.896;2022-07-04T05:33:57;100258.78;;;24.69;61.42
43430;BME280;29028;43.234;27.896;2022-07-04T05:34:18;100251.88;;;24.77;60.67
43430;BME280;29028;43.234;27.896;2022-07-04T05:34:40;100249.38;;;24.75;59.61
43430;BME280;29028;43.234;27.896;2022-07-04T05:35:01;100263.38;;;24.89;59.68
43430;BME280;29028;43.234;27.896;2022-07-04T05:35:22;100256.56;;;24.76;59.96
43430;BME280;29028;43.234;27.896;2022-07-04T05:35:42;100258.50;;;24.71;59.61
43430;BME280;29028;43.234;27.896;2022-07-04T05:36:05;100247.22;;;24.72;59.31
43430;BME280;29028;43.234;27.896;2022-07-04T05:36:26;100259.59;;;24.75;59.38
43430;BME280;29028;43.234;27.896;2022-07-04T05:36:47;100259.00;;;24.83;59.96
43430;BME280;29028;43.234;27.896;2022-07-04T05:37:09;100255.13;;;24.89;59.30
43430;BME280;29028;43.234;27.896;2022-07-04T05:37:30;100258.44;;;24.91;58.88
43430;BME280;29028;43.234;27.896;2022-07-04T05:37:51;100259.75;;;25.03;59.19
43430;BME280;29028;43.234;27.896;2022-07-04T05:38:11;100261.38;;;25.09;58.41
43430;BME280;29028;43.234;27.896;2022-07-04T05:38:34;100259.66;;;25.18;57.67
43430;BME280;29028;43.234;27.896;2022-07-04T05:38:54;100256.63;;;25.20;57.89
43430;BME280;29028;43.234;27.896;2022-07-04T05:39:15;100256.34;;;25.21;57.46
43430;BME280;29028;43.234;27.896;2022-07-04T05:39:36;100260.22;;;25.30;57.54
43430;BME280;29028;43.234;27.896;2022-07-04T05:39:58;100259.66;;;25.28;57.33
43430;BME280;29028;43.234;27.896;2022-07-04T05:40:19;100257.25;;;25.07;57.46
43430;BME280;29028;43.234;27.896;2022-07-04T05:40:41;100255.94;;;24.89;58.47
43430;BME280;29028;43.234;27.896;2022-07-04T05:41:02;100260.69;;;24.84;59.14
43430;BME280;29028;43.234;27.896;2022-07-04T05:41:25;100251.84;;;24.82;58.64
43430;BME280;29028;43.234;27.896;2022-07-04T05:41:46;100254.09;;;24.55;59.55
43430;BME280;29028;43.234;27.896;2022-07-04T05:42:07;100254.13;;;24.60;59.90
43430;BME280;29028;43.234;27.896;2022-07-04T05:42:28;100258.25;;;24.62;60.17
43430;BME280;29028;43.234;27.896;2022-07-04T05:42:49;100252.19;;;24.70;59.99
43430;BME280;29028;43.234;27.896;2022-07-04T05:43:10;100257.69;;;24.70;59.54
43430;BME280;29028;43.234;27.896;2022-07-04T05:43:32;100258.22;;;24.77;60.86
43430;BME280;29028;43.234;27.896;2022-07-04T05:43:53;100249.66;;;24.79;60.43
43430;BME280;29028;43.234;27.896;2022-07-04T05:44:15;100265.09;;;24.80;60.23
43430;BME280;29028;43.234;27.896;2022-07-04T05:44:36;100260.09;;;24.87;60.37
43430;BME280;29028;43.234;27.896;2022-07-04T05:44:57;100262.56;;;24.88;60.01
43430;BME280;29028;43.234;27.896;2022-07-04T05:45:18;100263.94;;;24.96;59.62
43430;BME280;29028;43.234;27.896;2022-07-04T05:45:39;100267.75;;;25.00;60.53
43430;BME280;29028;43.234;27.896;2022-07-04T05:46:00;100258.66;;;25.04;60.72
43430;BME280;29028;43.234;27.896;2022-07-04T05:46:21;100262.53;;;25.03;60.48
43430;BME280;29028;43.234;27.896;2022-07-04T05:46:42;100266.91;;;25.04;60.45
43430;BME280;29028;43.234;27.896;2022-07-04T05:47:04;100260.25;;;25.15;60.23
43430;BME280;29028;43.234;27.896;2022-07-04T05:47:25;100254.47;;;25.17;60.11
43430;BME280;29028;43.234;27.896;2022-07-04T05:47:47;100249.75;;;25.17;59.86
43430;BME280;29028;43.234;27.896;2022-07-04T05:48:08;100260.81;;;25.12;59.47
43430;BME280;29028;43.234;27.896;2022-07-04T05:48:30;100262.16;;;25.20;59.66
43430;BME280;29028;43.234;27.896;2022-07-04T05:48:51;100254.75;;;25.15;59.97
43430;BME280;29028;43.234;27.896;2022-07-04T05:49:12;100262.72;;;25.17;59.32
43430;BME280;29028;43.234;27.896;2022-07-04T05:49:33;100263.78;;;25.21;59.14
43430;BME280;29028;43.234;27.896;2022-07-04T05:49:55;100263.56;;;25.12;59.45
43430;BME280;29028;43.234;27.896;2022-07-04T05:50:17;100264.94;;;25.15;59.92
43430;BME280;29028;43.234;27.896;2022-07-04T05:50:38;100258.63;;;25.09;59.90
43430;BME280;29028;43.234;27.896;2022-07-04T05:50:59;100262.16;;;25.15;59.85
43430;BME280;29028;43.234;27.896;2022-07-04T05:51:21;100265.47;;;25.22;59.39
43430;BME280;29028;43.234;27.896;2022-07-04T05:51:42;100262.69;;;25.27;60.04
43430;BME280;29028;43.234;27.896;2022-07-04T05:52:03;100261.88;;;25.21;59.98
43430;BME280;29028;43.234;27.896;2022-07-04T05:52:24;100271.25;;;25.30;59.76
43430;BME280;29028;43.234;27.896;2022-07-04T05:52:46;100262.34;;;25.38;59.30